Salina Municipal Airport
KSLN : now visible

Airfield :











YOU CAN JOIN US ON...

 
LOGIN :

Register | Disclaimer

   EN    FR    IT 

 









Legend :    VFR   Marginal VFR   IFR   Intensive IFR   Very Intensive IFR
Visi :
Ceiling :
>= 8 km
>= 3000ft
5 to 8 km
1000 to 3000 ft
1500m to 5 km
500 to 1000 ft
800 to 1500m
200 to 500 ft
< 800m
< 200 ft
Symbols :   Thunderstorms  Fog  Heavy snow  Heavy precipitations  Wind > 20 kt






- Airport Elevation : 1288 ft
- IATA code : SLN


KSLN - Salina Municipal

CURRENT METAR :
  • 162053Z 18016G30KT 10SM CLR 36/20 A2970 RMK AO2 PK WND 17031/2030 SLP040 T03560200 56018 $

EXPIRED METARs :
  • 161953Z 19021G32KT 10SM 36/20 A2972 RMK AO2 PK WND 21033/1925 SLP046 T03560200 $
  • 161853Z 18015G33KT 10SM 34/21 A2973 RMK AO2 PK WND 20033/1850 SLP050 T03440211 $
  • 161753Z 17019G30KT 10SM CLR 33/21 A2976 RMK AO2 PK WND 17031/1700 SLP059 T03280211 10328 20239 56015 $
  • 161653Z 17020G31KT 10SM CLR 31/21 A2977 RMK AO2 PK WND 17034/1558 SLP065 T03110211 $
  • 161553Z 16023G32KT 10SM CLR 28/20 A2978 RMK AO2 PK WND 16032/1522 SLP069 T02780200

TAF KSLN
Valid from the 16 at 18:00 until the 17 at 18:00 UTC


161725Z 1618/1718 18018G28KT P6SM SKC
FM170100 16016G26KT P6SM FEW110
FM171500 18024G32KT P6SM FEW200
KZKC FIR / North America



MET'MAP, your aeronautical weather chart ! - Copyright ORBIFLY December 2007 - Disclaimer

ORBIFLY MET'MAP TEAM :

Programming & Development : Alexandra Zaïnal
Original concept : Baudouin d'Aumeries
Technical & hardware support : Manuel Goepfert
Assistance : Marc-Olivier Méhu




SOURCES & CREDITS :

   NOAA       Earth
Advisory